Terminal Aerodrome Forecast
Issued by NWS

Home | Current Version | Previous Version | Text Only | Print | Product List | Glossary On
Versions: 1 2 3 4 5 6 7 8 9 10 11 12 13 14 15
000
FTUS45 KPSR 060539
TAFBLH
TAF
KBLH 060539Z 0606/0706 33004KT P6SM SCT150 SCT250
     FM062000 20007KT P6SM SCT150 BKN200
     FM070300 33005KT P6SM SCT150 BKN200=

USA.gov is the U.S. government's official web portal to all federal, state and local government web resources and services.